Time;durP1;ratioP1;P1;durP2;ratioP2;P2;SDS_P1;SDS_P2;PMS_P1;PMS_P2;Temp;Humidity;BMP_temperature;BMP_pressure;BME280_temperature;BME280_humidity;BME280_pressure;Samples;Min_cycle;Max_cycle;Signal;HPM_P1;HPM_P2
2021/08/21 00:00:52;;;;;;;23.77;22.23;;;;;;;;;;5035600;28;20479;-88
2021/08/21 00:03:19;;;;;;;23.83;22.30;;;;;;;;;;5035423;28;20445;-88
2021/08/21 00:05:47;;;;;;;23.30;21.60;;;;;;;;;;5035586;28;20435;-88
2021/08/21 00:08:14;;;;;;;24.90;23.40;;;;;;;;;;5035369;28;20449;-88
2021/08/21 00:10:43;;;;;;;22.53;21.13;;;;;;;;;;5034866;28;20415;-88
2021/08/21 00:13:10;;;;;;;23.03;21.67;;;;;;;;;;5034881;28;20418;-89
2021/08/21 00:15:38;;;;;;;24.60;23.00;;;;;;;;;;5035671;28;20412;-88
2021/08/21 00:18:05;;;;;;;23.03;21.60;;;;;;;;;;5034791;28;20441;-88
2021/08/21 00:20:32;;;;;;;24.50;22.80;;;;;;;;;;5035466;28;21023;-89
2021/08/21 00:23:00;;;;;;;23.40;22.00;;;;;;;;;;5033951;28;20457;-88
2021/08/21 00:25:28;;;;;;;25.13;23.30;;;;;;;;;;5035033;28;20433;-88
2021/08/21 00:27:56;;;;;;;24.20;22.60;;;;;;;;;;5034948;28;20766;-89
2021/08/21 00:30:24;;;;;;;23.57;22.07;;;;;;;;;;5034851;28;20408;-89
2021/08/21 00:32:51;;;;;;;22.80;21.30;;;;;;;;;;5034610;28;20459;-88
2021/08/21 00:35:19;;;;;;;24.20;22.60;;;;;;;;;;5034667;28;20466;-89
2021/08/21 00:37:47;;;;;;;22.87;21.47;;;;;;;;;;5034612;28;20418;-89
2021/08/21 00:40:14;;;;;;;23.60;22.00;;;;;;;;;;5034501;28;20938;-88
2021/08/21 00:42:42;;;;;;;24.77;23.17;;;;;;;;;;5034715;28;20480;-88
2021/08/21 00:45:12;;;;;;;22.77;21.40;;;;;;;;;;5034596;28;20444;-89
2021/08/21 00:47:39;;;;;;;24.00;22.60;;;;;;;;;;5034361;28;20447;-88
2021/08/21 00:50:07;;;;;;;23.77;22.37;;;;;;;;;;5034543;28;20447;-87
2021/08/21 00:52:36;;;;;;;23.47;22.07;;;;;;;;;;5034301;28;20439;-89
2021/08/21 00:55:04;;;;;;;23.80;22.40;;;;;;;;;;5034479;28;20471;-88
2021/08/21 00:57:31;;;;;;;24.03;22.50;;;;;;;;;;5034462;28;20491;-89
2021/08/21 00:59:59;;;;;;;23.13;21.83;;;;;;;;;;5034472;28;20423;-89
2021/08/21 01:02:31;;;;;;;23.63;22.20;;;;;;;;;;5034142;28;20463;-88
2021/08/21 01:04:59;;;;;;;24.40;22.90;;;;;;;;;;5034518;28;20779;-88
2021/08/21 01:07:28;;;;;;;23.33;21.93;;;;;;;;;;5016949;28;20427;-89
2021/08/21 01:09:56;;;;;;;25.10;23.47;;;;;;;;;;5034278;28;20447;-89
2021/08/21 01:12:24;;;;;;;24.83;23.23;;;;;;;;;;5034256;28;20455;-89
2021/08/21 01:14:53;;;;;;;25.20;23.40;;;;;;;;;;5034357;28;20440;-89
2021/08/21 01:17:21;;;;;;;26.67;24.87;;;;;;;;;;5034298;28;20479;-88
2021/08/21 01:19:51;;;;;;;24.53;23.00;;;;;;;;;;5034080;28;20904;-89
2021/08/21 01:22:19;;;;;;;25.10;23.47;;;;;;;;;;5033988;28;20457;-89
2021/08/21 01:24:49;;;;;;;24.70;22.90;;;;;;;;;;5033879;28;20456;-88
2021/08/21 01:27:19;;;;;;;24.60;22.90;;;;;;;;;;5016729;28;20470;-89
2021/08/21 01:29:47;;;;;;;24.10;22.70;;;;;;;;;;5033665;28;20438;-88
2021/08/21 01:32:15;;;;;;;24.43;22.77;;;;;;;;;;5034151;28;20407;-89
2021/08/21 01:34:42;;;;;;;25.77;24.00;;;;;;;;;;5019768;28;20447;-89
2021/08/21 01:37:10;;;;;;;24.57;22.80;;;;;;;;;;5020782;28;20430;-88
2021/08/21 01:39:37;;;;;;;25.20;23.47;;;;;;;;;;5020682;28;20419;-89
2021/08/21 01:42:05;;;;;;;24.40;22.80;;;;;;;;;;5019918;28;20519;-89
2021/08/21 01:44:34;;;;;;;23.80;22.27;;;;;;;;;;5019903;28;20426;-88
2021/08/21 01:47:02;;;;;;;25.07;23.47;;;;;;;;;;5037654;28;20452;-88
2021/08/21 01:49:30;;;;;;;24.57;22.97;;;;;;;;;;5037861;28;20748;-89
2021/08/21 01:52:00;;;;;;;24.53;23.00;;;;;;;;;;5037922;28;20939;-89
2021/08/21 01:54:28;;;;;;;24.83;23.03;;;;;;;;;;5020217;28;20475;-89
2021/08/21 01:56:56;;;;;;;29.07;26.87;;;;;;;;;;5037352;28;20411;-89
2021/08/21 01:59:24;;;;;;;28.03;26.07;;;;;;;;;;5037654;28;20418;-89
2021/08/21 02:01:54;;;;;;;25.70;23.93;;;;;;;;;;5037576;28;20480;-89
2021/08/21 02:04:23;;;;;;;26.03;24.20;;;;;;;;;;5037861;28;20422;-89
2021/08/21 02:06:51;;;;;;;26.30;24.00;;;;;;;;;;5037552;28;20433;-89
2021/08/21 02:09:19;;;;;;;26.93;25.03;;;;;;;;;;5037643;28;20442;-89
2021/08/21 02:11:47;;;;;;;29.17;27.20;;;;;;;;;;5037170;28;20421;-88
2021/08/21 02:14:14;;;;;;;27.50;25.60;;;;;;;;;;5037313;28;20534;-90
2021/08/21 02:16:42;;;;;;;30.87;28.63;;;;;;;;;;5037492;28;20414;-89
2021/08/21 02:19:11;;;;;;;27.00;25.10;;;;;;;;;;5037352;28;20418;-89
2021/08/21 02:21:39;;;;;;;28.00;25.70;;;;;;;;;;5037172;28;20459;-88
2021/08/21 02:24:07;;;;;;;27.63;25.80;;;;;;;;;;5037414;28;20403;-88
2021/08/21 02:26:37;;;;;;;27.07;25.13;;;;;;;;;;5037271;28;20506;-89
2021/08/21 02:29:05;;;;;;;27.33;25.30;;;;;;;;;;5037247;28;20427;-88
2021/08/21 02:31:32;;;;;;;28.30;26.33;;;;;;;;;;5037034;28;20419;-89
2021/08/21 02:33:59;;;;;;;27.47;25.53;;;;;;;;;;5036880;28;20449;-89
2021/08/21 02:36:28;;;;;;;28.03;26.10;;;;;;;;;;5036953;28;20448;-89
2021/08/21 02:38:56;;;;;;;27.40;25.53;;;;;;;;;;5036977;28;20448;-89
2021/08/21 02:41:23;;;;;;;28.00;26.00;;;;;;;;;;5036420;28;20481;-87
2021/08/21 02:43:50;;;;;;;28.23;26.03;;;;;;;;;;5036938;28;20415;-88
2021/08/21 02:46:18;;;;;;;30.53;28.13;;;;;;;;;;5035592;28;20456;-89
2021/08/21 02:48:46;;;;;;;26.33;24.33;;;;;;;;;;5036339;28;20451;-89
2021/08/21 02:51:14;;;;;;;29.23;26.93;;;;;;;;;;5036550;28;20444;-89
2021/08/21 02:53:43;;;;;;;27.07;25.10;;;;;;;;;;5036663;28;20440;-87
2021/08/21 02:56:10;;;;;;;28.87;26.67;;;;;;;;;;5036640;28;20442;-89
2021/08/21 02:58:38;;;;;;;26.90;24.97;;;;;;;;;;5036516;28;20415;-89
2021/08/21 03:01:05;;;;;;;26.70;24.80;;;;;;;;;;5036179;28;20888;-89
2021/08/21 03:03:32;;;;;;;27.27;25.27;;;;;;;;;;5036777;28;20941;-89
2021/08/21 03:06:00;;;;;;;27.10;25.10;;;;;;;;;;5018757;28;20426;-89
2021/08/21 03:08:27;;;;;;;28.00;25.93;;;;;;;;;;5036684;28;20411;-88
2021/08/21 03:10:56;;;;;;;26.57;24.73;;;;;;;;;;5036923;28;20414;-89
2021/08/21 03:13:23;;;;;;;26.10;24.30;;;;;;;;;;5036244;28;20419;-89
2021/08/21 03:15:51;;;;;;;28.07;26.17;;;;;;;;;;5036145;28;20425;-89
2021/08/21 03:18:18;;;;;;;27.67;25.77;;;;;;;;;;5036063;28;20414;-89
2021/08/21 03:20:45;;;;;;;29.37;27.37;;;;;;;;;;5035883;28;20913;-89
2021/08/21 03:23:13;;;;;;;30.67;28.27;;;;;;;;;;5035930;28;20529;-88
2021/08/21 03:25:40;;;;;;;27.83;26.03;;;;;;;;;;5035785;28;20402;-89
2021/08/21 03:28:09;;;;;;;28.87;26.87;;;;;;;;;;5035789;28;20445;-89
2021/08/21 03:30:36;;;;;;;28.30;26.20;;;;;;;;;;5035817;28;20410;-89
2021/08/21 03:33:07;;;;;;;28.13;26.13;;;;;;;;;;5035919;28;20418;-88
2021/08/21 03:35:34;;;;;;;26.50;24.53;;;;;;;;;;5035563;28;20441;-89
2021/08/21 03:38:02;;;;;;;28.00;26.00;;;;;;;;;;5018139;28;20437;-89
2021/08/21 03:40:29;;;;;;;28.47;26.27;;;;;;;;;;5035144;28;21039;-88
2021/08/21 03:42:57;;;;;;;27.90;25.93;;;;;;;;;;5035469;28;20834;-89
2021/08/21 03:45:26;;;;;;;27.43;25.63;;;;;;;;;;5035596;28;20422;-89
2021/08/21 03:47:54;;;;;;;27.60;25.80;;;;;;;;;;5018247;28;20418;-89
2021/08/21 03:50:21;;;;;;;26.33;24.57;;;;;;;;;;5036195;28;20440;-89
2021/08/21 03:52:48;;;;;;;28.67;26.27;;;;;;;;;;5035384;28;20430;-89
2021/08/21 03:55:16;;;;;;;28.43;26.40;;;;;;;;;;5035533;28;20426;-89
2021/08/21 03:57:43;;;;;;;27.80;25.70;;;;;;;;;;5035209;28;20410;-88
2021/08/21 04:00:11;;;;;;;28.97;26.97;;;;;;;;;;5017871;28;20910;-89
2021/08/21 04:02:40;;;;;;;28.37;26.33;;;;;;;;;;5035122;28;20483;-88
2021/08/21 04:05:07;;;;;;;31.00;28.60;;;;;;;;;;5034983;28;20429;-89
2021/08/21 04:07:35;;;;;;;30.47;27.90;;;;;;;;;;5035156;28;20439;-88
2021/08/21 04:10:04;;;;;;;28.77;26.57;;;;;;;;;;5035179;28;20458;-88
2021/08/21 04:12:31;;;;;;;28.70;26.50;;;;;;;;;;5035154;28;20422;-89
2021/08/21 04:14:59;;;;;;;26.93;24.97;;;;;;;;;;5035213;28;20446;-89
2021/08/21 04:17:26;;;;;;;27.73;25.73;;;;;;;;;;5034926;28;20410;-87
2021/08/21 04:19:55;;;;;;;29.70;27.40;;;;;;;;;;5035088;28;20764;-89
2021/08/21 04:22:23;;;;;;;26.17;24.27;;;;;;;;;;5034708;28;20479;-89
2021/08/21 04:24:50;;;;;;;27.33;25.10;;;;;;;;;;5034894;28;20452;-89
2021/08/21 04:27:17;;;;;;;29.10;26.93;;;;;;;;;;5034780;28;20883;-89
2021/08/21 04:29:46;;;;;;;28.43;26.37;;;;;;;;;;5035068;28;20796;-87
2021/08/21 04:32:13;;;;;;;29.10;27.00;;;;;;;;;;5017190;28;20804;-89
2021/08/21 04:34:40;;;;;;;29.07;27.00;;;;;;;;;;5034794;28;20449;-89
2021/08/21 04:37:09;;;;;;;27.17;25.27;;;;;;;;;;5034452;28;20423;-88
2021/08/21 04:39:37;;;;;;;29.43;27.10;;;;;;;;;;5034513;28;20411;-89
2021/08/21 04:42:05;;;;;;;27.70;25.43;;;;;;;;;;5033982;28;20466;-88
2021/08/21 04:44:32;;;;;;;28.43;26.23;;;;;;;;;;5034334;28;20418;-88
2021/08/21 04:46:59;;;;;;;27.97;25.87;;;;;;;;;;5034370;28;20418;-89
2021/08/21 04:49:27;;;;;;;28.63;26.43;;;;;;;;;;5034427;28;20422;-89
2021/08/21 04:51:56;;;;;;;26.97;24.87;;;;;;;;;;5034630;28;20447;-86
2021/08/21 04:54:26;;;;;;;26.47;24.47;;;;;;;;;;5033996;28;20438;-85
2021/08/21 04:56:53;;;;;;;28.10;26.07;;;;;;;;;;5033851;28;20464;-86
2021/08/21 04:59:21;;;;;;;27.00;25.10;;;;;;;;;;5016842;28;20453;-88
2021/08/21 05:01:49;;;;;;;28.40;26.30;;;;;;;;;;5016827;28;20509;-89
2021/08/21 05:04:16;;;;;;;29.07;26.73;;;;;;;;;;5034313;28;20512;-86
2021/08/21 05:06:43;;;;;;;27.07;25.17;;;;;;;;;;5016502;28;20901;-86
2021/08/21 05:09:11;;;;;;;28.10;26.00;;;;;;;;;;5016070;28;20763;-86
2021/08/21 05:11:40;;;;;;;28.67;26.53;;;;;;;;;;5034111;28;20522;-85
2021/08/21 05:14:07;;;;;;;26.80;24.80;;;;;;;;;;5034131;28;20702;-86
2021/08/21 05:16:36;;;;;;;27.50;25.40;;;;;;;;;;5033811;28;20443;-86
2021/08/21 05:19:07;;;;;;;28.13;26.13;;;;;;;;;;5033726;28;20437;-86
2021/08/21 05:21:36;;;;;;;30.30;28.00;;;;;;;;;;5034030;28;20445;-86
2021/08/21 05:24:04;;;;;;;30.13;27.47;;;;;;;;;;5034507;28;20519;-86
2021/08/21 05:26:32;;;;;;;27.80;25.80;;;;;;;;;;5033662;28;20455;-86
2021/08/21 05:29:01;;;;;;;28.90;26.90;;;;;;;;;;5033943;28;20771;-85
2021/08/21 05:31:28;;;;;;;28.57;26.57;;;;;;;;;;5034027;28;20444;-86
2021/08/21 05:33:55;;;;;;;28.23;26.13;;;;;;;;;;5033675;28;20826;-86
2021/08/21 05:36:23;;;;;;;28.80;26.50;;;;;;;;;;5033846;28;20789;-86
2021/08/21 05:38:50;;;;;;;27.20;25.43;;;;;;;;;;5033634;28;20438;-84
2021/08/21 05:41:18;;;;;;;28.13;26.13;;;;;;;;;;5033334;28;20458;-86
2021/08/21 05:43:46;;;;;;;27.63;25.77;;;;;;;;;;5015882;28;20495;-86
2021/08/21 05:46:14;;;;;;;28.10;25.80;;;;;;;;;;5016354;28;20432;-86
2021/08/21 05:48:42;;;;;;;29.60;27.37;;;;;;;;;;5033809;28;20407;-85
2021/08/21 05:51:09;;;;;;;28.50;26.27;;;;;;;;;;5033506;28;20880;-86
2021/08/21 05:53:37;;;;;;;28.93;26.37;;;;;;;;;;5033351;28;20444;-86
2021/08/21 05:56:04;;;;;;;30.70;28.40;;;;;;;;;;5033552;28;20430;-85
2021/08/21 05:58:32;;;;;;;28.87;26.77;;;;;;;;;;5033497;28;20436;-87
2021/08/21 06:00:59;;;;;;;27.93;25.87;;;;;;;;;;5033470;28;20414;-85
2021/08/21 06:03:28;;;;;;;29.83;27.70;;;;;;;;;;5033722;28;20475;-86
2021/08/21 06:05:55;;;;;;;28.17;25.93;;;;;;;;;;5033767;28;20437;-86
2021/08/21 06:08:23;;;;;;;27.93;25.90;;;;;;;;;;5033673;28;20447;-86
2021/08/21 06:10:51;;;;;;;28.27;26.17;;;;;;;;;;5033811;28;20418;-86
2021/08/21 06:13:18;;;;;;;30.00;27.80;;;;;;;;;;5033005;28;20457;-87
2021/08/21 06:15:46;;;;;;;30.70;28.40;;;;;;;;;;5033390;28;20407;-87
2021/08/21 06:18:13;;;;;;;30.10;27.73;;;;;;;;;;5033322;28;20436;-87
2021/08/21 06:20:42;;;;;;;32.40;29.90;;;;;;;;;;5035145;28;20773;-85
2021/08/21 06:23:10;;;;;;;31.87;28.77;;;;;;;;;;5019164;28;20892;-85
2021/08/21 06:25:37;;;;;;;33.10;30.50;;;;;;;;;;5037036;28;20930;-87
2021/08/21 06:28:05;;;;;;;33.23;30.67;;;;;;;;;;5036994;28;20801;-87
2021/08/21 06:30:32;;;;;;;33.20;30.10;;;;;;;;;;5036714;28;20470;-87
2021/08/21 06:33:00;;;;;;;33.17;30.47;;;;;;;;;;5036710;28;20471;-87
2021/08/21 06:35:27;;;;;;;32.00;29.30;;;;;;;;;;5036627;28;20502;-87
2021/08/21 06:37:56;;;;;;;31.87;29.43;;;;;;;;;;5036844;28;20411;-87
2021/08/21 06:40:24;;;;;;;32.93;30.50;;;;;;;;;;5036392;28;20490;-87
2021/08/21 06:42:51;;;;;;;32.40;29.90;;;;;;;;;;5019389;28;20415;-86
2021/08/21 06:45:19;;;;;;;32.50;30.20;;;;;;;;;;5037315;28;20424;-87
2021/08/21 06:47:46;;;;;;;30.30;28.10;;;;;;;;;;5019396;28;20789;-87
2021/08/21 06:50:13;;;;;;;31.57;29.17;;;;;;;;;;5036725;28;20411;-87
2021/08/21 06:52:41;;;;;;;34.23;31.30;;;;;;;;;;5036891;28;20438;-87
2021/08/21 06:55:11;;;;;;;32.07;29.57;;;;;;;;;;5018979;28;20494;-87
2021/08/21 06:57:38;;;;;;;31.57;29.07;;;;;;;;;;5036292;28;20436;-87
2021/08/21 07:00:06;;;;;;;32.03;29.50;;;;;;;;;;5036514;28;20450;-86
2021/08/21 07:02:34;;;;;;;31.53;29.00;;;;;;;;;;5036205;28;20451;-87
2021/08/21 07:05:01;;;;;;;31.67;29.17;;;;;;;;;;5036288;28;20534;-95
2021/08/21 07:07:29;;;;;;;33.00;30.30;;;;;;;;;;5036412;28;20443;-89
2021/08/21 07:09:57;;;;;;;33.03;30.53;;;;;;;;;;5036231;28;20447;-87
2021/08/21 07:12:26;;;;;;;35.23;32.30;;;;;;;;;;5018631;28;20416;-87
2021/08/21 07:14:54;;;;;;;33.03;30.50;;;;;;;;;;5036870;28;20451;-90
2021/08/21 07:17:21;;;;;;;31.90;29.40;;;;;;;;;;5036398;28;20456;-91
2021/08/21 07:19:48;;;;;;;31.67;29.27;;;;;;;;;;5036315;28;20843;-89
2021/08/21 07:22:16;;;;;;;33.13;30.37;;;;;;;;;;5036713;28;20963;-93
2021/08/21 07:24:43;;;;;;;30.20;27.77;;;;;;;;;;5036214;28;20492;-92
2021/08/21 07:27:11;;;;;;;32.37;29.67;;;;;;;;;;5035611;28;20414;-88
2021/08/21 07:29:40;;;;;;;33.80;30.97;;;;;;;;;;5036143;28;20793;-89
2021/08/21 07:32:08;;;;;;;31.30;28.90;;;;;;;;;;5035424;28;20444;-87
2021/08/21 07:34:36;;;;;;;33.60;30.90;;;;;;;;;;5035802;28;20469;-86
2021/08/21 07:37:04;;;;;;;32.53;30.13;;;;;;;;;;5017963;28;20452;-86
2021/08/21 07:39:31;;;;;;;32.90;30.50;;;;;;;;;;5035740;28;20438;-86
2021/08/21 07:41:59;;;;;;;36.10;33.10;;;;;;;;;;5035246;28;20456;-86
2021/08/21 07:44:26;;;;;;;35.07;31.97;;;;;;;;;;5035607;28;20453;-89
2021/08/21 07:46:55;;;;;;;35.27;32.00;;;;;;;;;;5035226;28;20423;-87
2021/08/21 07:49:23;;;;;;;36.30;33.40;;;;;;;;;;5035673;28;20417;-87
2021/08/21 07:51:50;;;;;;;36.30;32.83;;;;;;;;;;5035752;28;20768;-92
2021/08/21 07:54:17;;;;;;;35.63;32.63;;;;;;;;;;5035771;28;20800;-90
2021/08/21 07:56:45;;;;;;;34.73;31.93;;;;;;;;;;5035464;28;20444;-91
2021/08/21 07:59:12;;;;;;;33.60;30.87;;;;;;;;;;5035510;28;20447;-87
2021/08/21 08:01:40;;;;;;;34.77;31.87;;;;;;;;;;5035586;28;20444;-90
2021/08/21 08:04:09;;;;;;;32.83;30.07;;;;;;;;;;5035589;28;20476;-89
2021/08/21 08:06:36;;;;;;;35.77;32.97;;;;;;;;;;5035153;28;20438;-90
2021/08/21 08:09:04;;;;;;;35.73;32.27;;;;;;;;;;5018164;28;20412;-90
2021/08/21 08:11:31;;;;;;;32.80;30.20;;;;;;;;;;5035170;28;20431;-90
2021/08/21 08:13:59;;;;;;;35.93;32.80;;;;;;;;;;5035513;28;20421;-89
2021/08/21 08:16:26;;;;;;;36.30;33.43;;;;;;;;;;5034773;28;20446;-89
2021/08/21 08:18:54;;;;;;;37.63;34.53;;;;;;;;;;5034710;28;20445;-88
2021/08/21 08:21:22;;;;;;;34.27;31.40;;;;;;;;;;5017845;28;20408;-89
2021/08/21 08:23:51;;;;;;;33.87;31.27;;;;;;;;;;5035056;28;20483;-89
2021/08/21 08:26:18;;;;;;;35.17;31.97;;;;;;;;;;5035070;28;20448;-88
2021/08/21 08:28:46;;;;;;;33.70;31.10;;;;;;;;;;5034816;28;20438;-88
2021/08/21 08:31:14;;;;;;;34.40;31.77;;;;;;;;;;5034931;28;20771;-86
2021/08/21 08:33:41;;;;;;;34.80;31.93;;;;;;;;;;5034024;28;20477;-82
2021/08/21 08:36:08;;;;;;;38.43;35.17;;;;;;;;;;5033775;28;20455;-81
2021/08/21 08:38:37;;;;;;;34.80;32.07;;;;;;;;;;5016219;28;20420;-79
2021/08/21 08:41:05;;;;;;;35.63;32.53;;;;;;;;;;5016326;28;20454;-79
2021/08/21 08:43:33;;;;;;;34.60;31.80;;;;;;;;;;5032783;28;20468;-79
2021/08/21 08:46:00;;;;;;;35.57;32.53;;;;;;;;;;5016264;28;20450;-80
2021/08/21 08:48:28;;;;;;;34.00;31.20;;;;;;;;;;5016538;28;20419;-79
2021/08/21 08:50:56;;;;;;;36.00;32.93;;;;;;;;;;5033955;28;20519;-79
2021/08/21 08:53:23;;;;;;;36.60;33.60;;;;;;;;;;5033600;28;20417;-79
2021/08/21 08:55:52;;;;;;;35.70;32.70;;;;;;;;;;5033678;28;20450;-79
2021/08/21 08:58:20;;;;;;;40.27;36.57;;;;;;;;;;5033525;28;20432;-79
2021/08/21 09:00:47;;;;;;;38.07;34.60;;;;;;;;;;5033820;28;20759;-79
2021/08/21 09:03:21;;;;;;;38.97;35.40;;;;;;;;;;5033943;28;20456;-79
2021/08/21 09:05:49;;;;;;;38.27;34.90;;;;;;;;;;5033329;28;20456;-79
2021/08/21 09:08:24;;;;;;;36.03;33.03;;;;;;;;;;5016134;28;20425;-79
2021/08/21 09:10:52;;;;;;;36.00;32.90;;;;;;;;;;5033752;28;20446;-79
2021/08/21 09:13:20;;;;;;;38.67;35.13;;;;;;;;;;5033564;28;20440;-79
2021/08/21 09:15:49;;;;;;;37.80;34.30;;;;;;;;;;5033471;28;20448;-78
2021/08/21 09:18:17;;;;;;;35.20;32.20;;;;;;;;;;5033685;28;20441;-79
2021/08/21 09:20:55;;;;;;;35.67;32.47;;;;;;;;;;5033633;28;20441;-79
2021/08/21 09:23:26;;;;;;;37.83;34.20;;;;;;;;;;5033346;28;20915;-79
2021/08/21 09:25:56;;;;;;;35.60;32.47;;;;;;;;;;5033674;28;20779;-79
2021/08/21 09:28:24;;;;;;;32.97;30.27;;;;;;;;;;5033528;28;20419;-79
2021/08/21 09:31:01;;;;;;;34.47;31.57;;;;;;;;;;5033549;28;20424;-83
2021/08/21 09:33:29;;;;;;;27.30;25.40;;;;;;;;;;5015568;28;20517;-81
2021/08/21 09:35:57;;;;;;;29.87;27.57;;;;;;;;;;5015796;28;20527;-82
2021/08/21 09:38:25;;;;;;;28.27;26.17;;;;;;;;;;5032962;28;20400;-80
2021/08/21 09:41:00;;;;;;;31.17;28.80;;;;;;;;;;5033021;28;21022;-79
2021/08/21 09:43:31;;;;;;;30.50;28.30;;;;;;;;;;5033388;28;20415;-80
2021/08/21 09:46:10;;;;;;;30.77;28.43;;;;;;;;;;5033097;28;20486;-80
2021/08/21 09:48:54;;;;;;;26.63;24.73;;;;;;;;;;5015482;28;20443;-80
2021/08/21 09:51:35;;;;;;;28.70;26.63;;;;;;;;;;5033304;28;20791;-85
2021/08/21 09:54:02;;;;;;;28.87;26.77;;;;;;;;;;5033775;28;20857;-80
2021/08/21 09:56:34;;;;;;;27.30;25.20;;;;;;;;;;5037316;28;20417;-80
2021/08/21 09:59:03;;;;;;;28.90;26.70;;;;;;;;;;5036863;28;20443;-80
2021/08/21 10:01:30;;;;;;;29.63;27.63;;;;;;;;;;5036977;28;20442;-80
2021/08/21 10:03:58;;;;;;;29.67;27.37;;;;;;;;;;5036635;28;20439;-80
2021/08/21 10:06:25;;;;;;;30.80;28.50;;;;;;;;;;5036872;28;20430;-81
2021/08/21 10:08:56;;;;;;;29.63;27.33;;;;;;;;;;5036572;28;20445;-81
2021/08/21 10:11:24;;;;;;;31.33;29.00;;;;;;;;;;5037730;28;20776;-81
2021/08/21 10:13:52;;;;;;;30.53;27.93;;;;;;;;;;5036372;28;20910;-81
2021/08/21 10:16:21;;;;;;;27.40;25.50;;;;;;;;;;5036436;28;20421;-81
2021/08/21 10:18:49;;;;;;;28.23;26.33;;;;;;;;;;5036411;28;20417;-81
2021/08/21 10:21:17;;;;;;;25.70;23.80;;;;;;;;;;5036731;28;20428;-81
2021/08/21 10:23:45;;;;;;;24.40;22.90;;;;;;;;;;5036407;28;20416;-81
2021/08/21 10:26:16;;;;;;;28.93;26.97;;;;;;;;;;5036238;28;20479;-82
2021/08/21 10:28:44;;;;;;;27.67;25.47;;;;;;;;;;5036527;28;20424;-81
2021/08/21 10:31:31;;;;;;;27.23;25.43;;;;;;;;;;5036459;28;20428;-81
2021/08/21 10:34:00;;;;;;;27.73;25.77;;;;;;;;;;5036745;28;20843;-82
2021/08/21 10:36:41;;;;;;;26.50;24.70;;;;;;;;;;5018613;28;20417;-81
2021/08/21 10:39:15;;;;;;;24.80;23.20;;;;;;;;;;5036325;28;20446;-82
2021/08/21 10:41:42;;;;;;;27.20;25.27;;;;;;;;;;5035899;28;20487;-81
2021/08/21 10:44:10;;;;;;;25.50;23.80;;;;;;;;;;5018234;28;20945;-81
2021/08/21 10:46:56;;;;;;;25.57;23.87;;;;;;;;;;5036169;28;20947;-81
2021/08/21 10:49:51;;;;;;;25.60;23.77;;;;;;;;;;5035713;28;20437;-81
2021/08/21 10:52:37;;;;;;;26.17;24.47;;;;;;;;;;4975106;28;20464;-81
2021/08/21 10:55:14;;;;;;;24.60;22.80;;;;;;;;;;4974947;28;20456;-81
2021/08/21 10:57:55;;;;;;;24.80;23.30;;;;;;;;;;4958914;28;20470;-82
2021/08/21 11:00:37;;;;;;;23.87;22.47;;;;;;;;;;4974824;28;20452;-82
2021/08/21 11:03:05;;;;;;;25.10;23.60;;;;;;;;;;4958449;28;20531;-82
2021/08/21 11:05:52;;;;;;;24.83;23.07;;;;;;;;;;4974246;28;20585;-81
2021/08/21 11:08:19;;;;;;;23.97;22.67;;;;;;;;;;4974780;28;20476;-83
2021/08/21 11:10:49;;;;;;;24.07;22.60;;;;;;;;;;4973972;28;20488;-83
2021/08/21 11:13:35;;;;;;;24.23;22.70;;;;;;;;;;4974850;28;20413;-86
2021/08/21 11:16:04;;;;;;;24.90;23.33;;;;;;;;;;4975697;28;20586;-85
2021/08/21 11:18:32;;;;;;;25.40;23.80;;;;;;;;;;4975038;28;20548;-86
2021/08/21 11:21:19;;;;;;;26.40;24.60;;;;;;;;;;4958772;28;20452;-80
2021/08/21 11:23:52;;;;;;;25.93;24.23;;;;;;;;;;4974323;28;20424;-80
2021/08/21 11:26:25;;;;;;;25.40;23.70;;;;;;;;;;4974295;28;20878;-80
2021/08/21 11:29:06;;;;;;;24.97;23.40;;;;;;;;;;5024602;28;20959;-81
2021/08/21 11:31:48;;;;;;;23.87;22.37;;;;;;;;;;5035022;28;20467;-80
2021/08/21 11:34:16;;;;;;;23.90;22.40;;;;;;;;;;5016896;28;20511;-80
2021/08/21 11:36:44;;;;;;;24.43;22.90;;;;;;;;;;5035172;28;20428;-80
2021/08/21 11:39:11;;;;;;;23.03;21.70;;;;;;;;;;5035237;28;20439;-80
2021/08/21 11:41:40;;;;;;;23.80;22.40;;;;;;;;;;5035020;28;20475;-80
2021/08/21 11:44:08;;;;;;;23.30;21.90;;;;;;;;;;5034944;28;20759;-80
2021/08/21 11:46:35;;;;;;;23.70;22.30;;;;;;;;;;5034992;28;20457;-80
2021/08/21 11:49:09;;;;;;;24.57;23.00;;;;;;;;;;5017665;28;20429;-80
2021/08/21 11:51:38;;;;;;;23.20;21.80;;;;;;;;;;5034970;28;20756;-80
2021/08/21 11:54:06;;;;;;;24.03;22.53;;;;;;;;;;5034640;28;20478;-80
2021/08/21 11:56:33;;;;;;;23.67;22.17;;;;;;;;;;5034477;28;20444;-80
2021/08/21 11:59:10;;;;;;;22.83;21.50;;;;;;;;;;5035034;28;20880;-81
2021/08/21 12:01:40;;;;;;;23.30;21.90;;;;;;;;;;5034492;28;20960;-80
2021/08/21 12:04:23;;;;;;;23.70;22.30;;;;;;;;;;5034233;28;20462;-81
2021/08/21 12:06:50;;;;;;;24.17;22.70;;;;;;;;;;5034656;28;20422;-81
2021/08/21 12:09:19;;;;;;;22.90;21.30;;;;;;;;;;5034415;28;20414;-81
2021/08/21 12:11:47;;;;;;;23.17;21.77;;;;;;;;;;5034540;28;20515;-81
2021/08/21 12:14:17;;;;;;;24.17;22.67;;;;;;;;;;5034126;28;20435;-81
2021/08/21 12:16:44;;;;;;;22.63;21.23;;;;;;;;;;5034923;28;20451;-81
2021/08/21 12:19:12;;;;;;;22.47;21.27;;;;;;;;;;5034712;28;20418;-86
2021/08/21 12:21:40;;;;;;;23.30;21.90;;;;;;;;;;5037033;28;20428;-90
2021/08/21 12:24:09;;;;;;;23.13;21.60;;;;;;;;;;5019375;28;20455;-88
2021/08/21 12:26:37;;;;;;;22.70;21.30;;;;;;;;;;5034254;28;20525;-83
2021/08/21 12:29:05;;;;;;;24.17;22.70;;;;;;;;;;5034353;28;20435;-83
2021/08/21 12:31:38;;;;;;;24.00;22.40;;;;;;;;;;5034588;28;20435;-87
2021/08/21 12:34:07;;;;;;;23.57;22.07;;;;;;;;;;5034739;28;20534;-87
2021/08/21 12:36:41;;;;;;;23.00;21.50;;;;;;;;;;5034367;28;20457;-86
2021/08/21 12:39:10;;;;;;;24.37;22.97;;;;;;;;;;5033782;28;20982;-88
2021/08/21 12:41:47;;;;;;;23.97;22.37;;;;;;;;;;5034099;28;20479;-83
2021/08/21 12:44:15;;;;;;;24.50;23.03;;;;;;;;;;5016499;28;20417;-87
2021/08/21 12:46:52;;;;;;;23.90;22.33;;;;;;;;;;5034226;28;21001;-85
2021/08/21 12:49:28;;;;;;;23.83;22.30;;;;;;;;;;5033924;28;20474;-85
2021/08/21 12:51:56;;;;;;;22.60;21.30;;;;;;;;;;5034350;28;20431;-86
2021/08/21 12:54:28;;;;;;;23.20;21.60;;;;;;;;;;5033806;28;20456;-84
2021/08/21 12:57:09;;;;;;;21.73;20.43;;;;;;;;;;5033708;28;20414;-80
2021/08/21 12:59:39;;;;;;;22.60;21.20;;;;;;;;;;5033848;28;20432;-83
2021/08/21 13:02:10;;;;;;;22.97;21.57;;;;;;;;;;5016172;28;20429;-84
2021/08/21 13:04:37;;;;;;;22.80;21.40;;;;;;;;;;5033980;28;20442;-82
2021/08/21 13:07:06;;;;;;;21.80;20.50;;;;;;;;;;5033710;28;20457;-84
2021/08/21 13:09:34;;;;;;;22.80;21.50;;;;;;;;;;5033189;28;20927;-87
2021/08/21 13:12:02;;;;;;;22.20;20.80;;;;;;;;;;5033970;28;20773;-87
2021/08/21 13:14:29;;;;;;;22.90;21.30;;;;;;;;;;5034388;28;20425;-87
2021/08/21 13:16:57;;;;;;;22.67;21.37;;;;;;;;;;5018028;28;20505;-87
2021/08/21 13:19:26;;;;;;;23.17;21.67;;;;;;;;;;5034004;28;20418;-84
2021/08/21 13:21:53;;;;;;;22.80;21.40;;;;;;;;;;5033374;28;20447;-87
2021/08/21 13:24:21;;;;;;;22.23;20.93;;;;;;;;;;5033592;28;20434;-83
2021/08/21 13:26:48;;;;;;;22.10;20.80;;;;;;;;;;5015684;28;20487;-84
2021/08/21 13:29:16;;;;;;;23.00;21.53;;;;;;;;;;5017035;28;20443;-84
2021/08/21 13:31:43;;;;;;;22.97;21.57;;;;;;;;;;5020364;28;20451;-83
2021/08/21 13:34:10;;;;;;;21.50;20.20;;;;;;;;;;5037448;28;20418;-84
2021/08/21 13:36:40;;;;;;;22.50;21.30;;;;;;;;;;5037579;28;20451;-84
2021/08/21 13:39:09;;;;;;;21.80;20.50;;;;;;;;;;5037558;28;20447;-84
2021/08/21 13:41:37;;;;;;;22.50;21.20;;;;;;;;;;5019842;28;20562;-84
2021/08/21 13:44:05;;;;;;;21.83;20.63;;;;;;;;;;5037194;28;20472;-84
2021/08/21 13:46:32;;;;;;;21.70;20.50;;;;;;;;;;5037038;28;20483;-84
2021/08/21 13:49:02;;;;;;;22.70;21.13;;;;;;;;;;5037454;28;20447;-84
2021/08/21 13:51:29;;;;;;;22.53;21.13;;;;;;;;;;5037485;28;20468;-84
2021/08/21 13:53:59;;;;;;;22.93;21.63;;;;;;;;;;5037374;28;20432;-84
2021/08/21 13:56:26;;;;;;;22.97;21.37;;;;;;;;;;5037203;28;20816;-84
2021/08/21 13:58:53;;;;;;;22.13;20.83;;;;;;;;;;5019849;28;20417;-84
2021/08/21 14:01:21;;;;;;;21.53;20.23;;;;;;;;;;5019879;28;20415;-84
2021/08/21 14:03:48;;;;;;;22.03;20.73;;;;;;;;;;5036875;28;20447;-83
2021/08/21 14:06:15;;;;;;;21.90;20.60;;;;;;;;;;5036770;28;20981;-84
2021/08/21 14:08:43;;;;;;;22.40;21.10;;;;;;;;;;5037457;28;20414;-84
2021/08/21 14:11:12;;;;;;;21.50;20.30;;;;;;;;;;5036715;28;20451;-84
2021/08/21 14:13:39;;;;;;;21.67;20.47;;;;;;;;;;5036856;28;20803;-84
2021/08/21 14:16:06;;;;;;;21.60;20.40;;;;;;;;;;5036777;28;20454;-84
2021/08/21 14:18:34;;;;;;;21.40;20.00;;;;;;;;;;5036874;28;20779;-84
2021/08/21 14:21:01;;;;;;;22.50;21.20;;;;;;;;;;5036937;28;20406;-84
2021/08/21 14:23:29;;;;;;;22.10;20.80;;;;;;;;;;5036681;28;20435;-84
2021/08/21 14:25:56;;;;;;;22.10;20.80;;;;;;;;;;5036589;28;20470;-84